createdAt,value
2022-12-15T00:02:43.182Z,0
2022-12-15T00:05:16.122Z,0
2022-12-15T00:07:49.057Z,0
2022-12-15T00:12:54.945Z,0
2022-12-15T00:18:01.036Z,0
2022-12-15T00:19:17.711Z,0
2022-12-15T00:21:50.330Z,0
2022-12-15T00:23:07.015Z,0
2022-12-15T00:25:40.380Z,0
2022-12-15T00:26:57.054Z,0
2022-12-15T00:38:27.127Z,0
2022-12-15T00:41:00.486Z,0
2022-12-15T00:42:17.160Z,0
2022-12-15T00:47:23.857Z,0
2022-12-15T00:48:40.547Z,0
2022-12-15T00:49:57.212Z,0
2022-12-15T00:51:13.886Z,0
2022-12-15T00:58:53.220Z,0
2022-12-15T01:00:09.895Z,0
2022-12-15T01:02:42.521Z,0
2022-12-15T01:03:59.196Z,0
2022-12-15T01:05:15.868Z,0
2022-12-15T01:06:32.550Z,0
2022-12-15T01:07:49.227Z,0
2022-12-15T01:09:05.935Z,0
2022-12-15T01:10:22.611Z,0
2022-12-15T01:12:55.963Z,0
2022-12-15T01:20:35.329Z,0
2022-12-15T01:21:52.007Z,0
2022-12-15T01:25:42.039Z,0
2022-12-15T01:26:58.710Z,0
2022-12-15T01:33:22.092Z,0
2022-12-15T01:34:38.776Z,0
2022-12-15T01:35:55.447Z,0
2022-12-15T01:38:28.114Z,0
2022-12-15T01:39:44.789Z,0
2022-12-15T01:41:01.477Z,0
2022-12-15T01:42:18.141Z,0
2022-12-15T01:43:34.817Z,0
2022-12-15T01:44:51.495Z,0
2022-12-15T01:48:40.801Z,0
2022-12-15T01:53:47.517Z,0
2022-12-15T01:55:04.176Z,0
2022-12-15T01:57:37.536Z,0
2022-12-15T02:01:27.556Z,0
2022-12-15T02:02:44.235Z,0
2022-12-15T02:07:50.209Z,0
2022-12-15T02:10:23.561Z,0
2022-12-15T02:11:40.238Z,0
2022-12-15T02:12:56.919Z,0
2022-12-15T02:16:46.948Z,0
2022-12-15T02:20:36.978Z,0
2022-12-15T02:21:53.657Z,0
2022-12-15T02:25:42.954Z,0
2022-12-15T02:28:16.301Z,0
2022-12-15T02:30:49.658Z,0
2022-12-15T02:33:23.011Z,0
2022-12-15T02:37:13.035Z,0
2022-12-15T02:38:29.717Z,0
2022-12-15T02:39:46.387Z,0
2022-12-15T02:42:19.745Z,0
2022-12-15T02:43:36.417Z,0
2022-12-15T02:47:26.457Z,0
2022-12-15T02:48:42.436Z,0
2022-12-15T02:51:15.062Z,0
2022-12-15T02:52:30.469Z,0
2022-12-15T02:53:45.880Z,0
2022-12-15T02:55:01.240Z,0
2022-12-15T02:56:17.666Z,0
2022-12-15T02:57:33.959Z,0
2022-12-15T02:58:50.244Z,0
2022-12-15T03:00:06.546Z,0
2022-12-15T03:01:22.832Z,0
2022-12-15T03:02:39.135Z,0
2022-12-15T03:03:55.442Z,0
2022-12-15T03:05:11.733Z,0
2022-12-15T03:06:28.030Z,0
2022-12-15T03:07:44.323Z,0
2022-12-15T03:08:59.636Z,0
2022-12-15T03:10:14.945Z,0
2022-12-15T03:11:31.242Z,0
2022-12-15T03:12:47.538Z,0
2022-12-15T03:14:03.824Z,0
2022-12-15T03:15:20.127Z,0
2022-12-15T03:16:36.419Z,0
2022-12-15T03:17:52.727Z,0
2022-12-15T03:19:09.017Z,0
2022-12-15T03:20:25.305Z,0
2022-12-15T03:22:57.907Z,0
2022-12-15T03:24:14.194Z,0
2022-12-15T03:25:30.486Z,0
2022-12-15T03:26:45.803Z,0
2022-12-15T03:28:02.090Z,0
2022-12-15T03:29:18.391Z,0
2022-12-15T03:30:34.683Z,0
2022-12-15T03:31:50.973Z,0
2022-12-15T03:33:07.270Z,0
2022-12-15T03:34:23.565Z,0
2022-12-15T03:35:39.875Z,0
2022-12-15T03:36:55.191Z,0
2022-12-15T03:38:10.505Z,0
2022-12-15T03:39:26.792Z,0
2022-12-15T03:40:43.077Z,0
2022-12-15T03:41:59.386Z,0
2022-12-15T03:43:15.676Z,0
2022-12-15T03:44:31.966Z,0
2022-12-15T03:45:48.263Z,0
2022-12-15T03:47:04.562Z,0
2022-12-15T03:48:20.848Z,0
2022-12-15T03:49:37.146Z,0
2022-12-15T03:50:53.473Z,0
2022-12-15T03:52:09.783Z,0
2022-12-15T03:53:26.072Z,0
2022-12-15T03:54:41.382Z,0
2022-12-15T03:55:57.688Z,0
2022-12-15T03:57:13.977Z,0
2022-12-15T03:58:30.259Z,0
2022-12-15T03:59:46.572Z,0
2022-12-15T04:01:02.854Z,0
2022-12-15T04:02:19.151Z,0
2022-12-15T04:03:35.592Z,0
2022-12-15T04:04:50.904Z,0
2022-12-15T04:06:06.219Z,0
2022-12-15T04:07:22.631Z,0
2022-12-15T04:08:38.935Z,0
2022-12-15T04:09:55.234Z,0
2022-12-15T04:11:11.515Z,0
2022-12-15T04:12:27.825Z,0
2022-12-15T04:13:44.107Z,0
2022-12-15T04:15:00.401Z,0
2022-12-15T04:16:16.712Z,0
2022-12-15T04:17:33.003Z,0
2022-12-15T04:18:49.285Z,0
2022-12-15T04:20:05.589Z,0
2022-12-15T04:21:21.878Z,0
2022-12-15T04:22:38.177Z,0
2022-12-15T04:23:53.489Z,0
2022-12-15T04:25:09.790Z,0
2022-12-15T04:26:26.089Z,0
2022-12-15T04:27:42.374Z,0
2022-12-15T04:28:58.669Z,0
2022-12-15T04:30:14.971Z,0
2022-12-15T04:31:31.258Z,0
2022-12-15T04:32:46.579Z,0
2022-12-15T04:34:01.883Z,0
2022-12-15T04:35:18.194Z,0
2022-12-15T04:36:33.000Z,0
2022-12-15T04:37:48.811Z,0
2022-12-15T04:39:05.108Z,0
2022-12-15T04:40:21.398Z,0
2022-12-15T04:41:37.697Z,0
2022-12-15T04:42:53.998Z,0
2022-12-15T04:44:10.301Z,0
2022-12-15T04:45:26.588Z,0
2022-12-15T04:46:42.871Z,0
2022-12-15T04:47:59.185Z,0
2022-12-15T04:49:15.477Z,0
2022-12-15T04:50:31.777Z,0
2022-12-15T04:53:04.353Z,0
2022-12-15T04:54:19.677Z,0
2022-12-15T04:55:35.970Z,0
2022-12-15T04:56:52.266Z,0
2022-12-15T04:58:08.550Z,0
2022-12-15T04:59:24.840Z,0
2022-12-15T05:00:41.140Z,0
2022-12-15T05:01:57.433Z,0
2022-12-15T05:03:13.740Z,0
2022-12-15T05:04:29.046Z,0
2022-12-15T05:05:44.350Z,0
2022-12-15T05:07:00.658Z,0
2022-12-15T05:08:16.947Z,0
2022-12-15T05:09:33.249Z,0
2022-12-15T05:10:49.537Z,0
2022-12-15T05:12:05.845Z,0
2022-12-15T05:13:22.139Z,0
2022-12-15T05:14:38.428Z,0
2022-12-15T05:15:54.722Z,0
2022-12-15T05:17:10.037Z,0
2022-12-15T05:18:26.334Z,0
2022-12-15T05:19:42.621Z,0
2022-12-15T05:20:58.914Z,0
2022-12-15T05:22:15.225Z,0
2022-12-15T05:23:31.507Z,0
2022-12-15T05:24:47.808Z,0
2022-12-15T05:26:04.104Z,0
2022-12-15T05:27:20.403Z,0
2022-12-15T05:28:36.702Z,0
2022-12-15T05:29:52.996Z,0
2022-12-15T05:31:09.288Z,0
2022-12-15T05:32:25.588Z,0
2022-12-15T05:33:40.891Z,0
2022-12-15T05:34:57.318Z,0
2022-12-15T05:36:13.604Z,0
2022-12-15T05:37:28.919Z,0
2022-12-15T05:38:44.226Z,0
2022-12-15T05:40:00.526Z,0
2022-12-15T05:41:16.832Z,0
2022-12-15T05:42:33.114Z,0
2022-12-15T05:43:49.419Z,0
2022-12-15T05:45:05.722Z,0
2022-12-15T05:46:21.998Z,0
2022-12-15T05:47:38.303Z,0
2022-12-15T05:48:54.594Z,0
2022-12-15T05:50:10.893Z,0
2022-12-15T05:51:27.184Z,0
2022-12-15T05:52:43.476Z,0
2022-12-15T05:53:59.788Z,0
2022-12-15T05:55:15.085Z,0
2022-12-15T05:56:31.387Z,0
2022-12-15T05:57:47.682Z,0
2022-12-15T05:59:03.924Z,1
2022-12-15T06:00:20.224Z,0
2022-12-15T06:01:36.502Z,0
2022-12-15T06:02:52.811Z,0
2022-12-15T06:04:09.109Z,0
2022-12-15T06:05:24.420Z,0
2022-12-15T06:06:39.689Z,1
2022-12-15T06:07:55.945Z,1
2022-12-15T06:09:12.162Z,1
2022-12-15T06:10:28.410Z,1
2022-12-15T06:11:44.646Z,1
2022-12-15T06:13:00.899Z,1
2022-12-15T06:14:17.135Z,1
2022-12-15T06:15:33.376Z,1
2022-12-15T06:16:49.613Z,1
2022-12-15T06:18:05.864Z,1
2022-12-15T06:19:22.104Z,1
2022-12-15T06:20:38.351Z,1
2022-12-15T06:21:54.579Z,1
2022-12-15T06:23:09.843Z,1
2022-12-15T06:24:26.073Z,1
2022-12-15T06:25:42.326Z,2
2022-12-15T06:26:58.561Z,2
2022-12-15T06:28:14.799Z,2
2022-12-15T06:29:31.040Z,2
2022-12-15T06:30:47.000Z,2
2022-12-15T06:32:03.526Z,2
2022-12-15T06:33:18.793Z,1
2022-12-15T06:34:34.055Z,1
2022-12-15T06:35:50.284Z,2
2022-12-15T06:37:05.553Z,1
2022-12-15T06:38:20.810Z,4
2022-12-15T06:39:37.045Z,3
2022-12-15T06:40:53.289Z,4
2022-12-15T06:42:09.536Z,4
2022-12-15T06:43:25.779Z,6
2022-12-15T06:44:42.025Z,7
2022-12-15T06:45:58.263Z,9
2022-12-15T06:47:14.496Z,9
2022-12-15T06:48:30.737Z,13
2022-12-15T06:49:46.980Z,18
2022-12-15T06:51:03.221Z,23
2022-12-15T06:52:19.466Z,26
2022-12-15T06:53:35.714Z,33
2022-12-15T06:54:50.971Z,40
2022-12-15T06:56:07.207Z,47
2022-12-15T06:57:23.453Z,51
2022-12-15T06:58:39.679Z,60
2022-12-15T06:59:55.928Z,78
2022-12-15T07:01:12.178Z,89
2022-12-15T07:02:28.410Z,100
2022-12-15T07:03:44.660Z,116
2022-12-15T07:04:59.912Z,133
2022-12-15T07:06:15.175Z,153
2022-12-15T07:07:31.430Z,169
2022-12-15T07:08:47.655Z,193
2022-12-15T07:10:03.907Z,221
2022-12-15T07:11:20.136Z,242
2022-12-15T07:12:36.376Z,266
2022-12-15T07:13:52.621Z,291
2022-12-15T07:15:08.861Z,318
2022-12-15T07:16:25.118Z,343
2022-12-15T07:17:41.348Z,379
2022-12-15T07:18:57.594Z,404
2022-12-15T07:20:13.827Z,436
2022-12-15T07:21:30.067Z,472
2022-12-15T07:22:45.323Z,508
2022-12-15T07:24:01.567Z,543
2022-12-15T07:25:17.818Z,572
2022-12-15T07:26:34.055Z,604
2022-12-15T07:27:50.292Z,631
2022-12-15T07:29:06.542Z,653
2022-12-15T07:30:22.782Z,675
2022-12-15T07:31:39.012Z,704
2022-12-15T07:32:55.261Z,740
2022-12-15T07:34:11.496Z,777
2022-12-15T07:35:27.750Z,817
2022-12-15T07:36:43.998Z,860
2022-12-15T07:38:00.217Z,908
2022-12-15T07:39:15.487Z,958
2022-12-15T07:40:31.726Z,991
2022-12-15T07:41:47.962Z,1032
2022-12-15T07:43:04.222Z,1084
2022-12-15T07:44:20.449Z,1146
2022-12-15T07:45:36.686Z,1222
2022-12-15T07:46:52.930Z,1277
2022-12-15T07:48:09.175Z,1313
2022-12-15T07:49:25.420Z,1350
2022-12-15T07:50:41.664Z,1384
2022-12-15T07:51:57.897Z,1417
2022-12-15T07:53:14.136Z,1449
2022-12-15T07:54:30.377Z,1477
2022-12-15T07:55:46.626Z,1517
2022-12-15T07:57:01.894Z,1564
2022-12-15T07:58:18.117Z,1611
2022-12-15T07:59:34.370Z,1646
2022-12-15T08:00:50.605Z,1676
2022-12-15T08:02:06.850Z,1700
2022-12-15T08:03:23.094Z,1717
2022-12-15T08:04:39.325Z,1721
2022-12-15T08:05:55.564Z,1720
2022-12-15T08:07:11.800Z,1720
2022-12-15T08:08:28.053Z,1683
2022-12-15T08:09:44.287Z,1638
2022-12-15T08:11:00.531Z,1624
2022-12-15T08:12:16.780Z,1644
2022-12-15T08:13:33.018Z,1705
2022-12-15T08:14:48.285Z,1820
2022-12-15T08:16:04.518Z,1933
2022-12-15T08:17:20.753Z,2002
2022-12-15T08:18:36.996Z,1993
2022-12-15T08:19:53.244Z,1941
2022-12-15T08:21:09.478Z,1968
2022-12-15T08:22:25.728Z,2037
2022-12-15T08:23:41.974Z,2116
2022-12-15T08:24:58.208Z,2209
2022-12-15T08:26:14.456Z,2281
2022-12-15T08:27:30.677Z,2301
2022-12-15T08:28:46.917Z,2317
2022-12-15T08:30:03.170Z,2322
2022-12-15T08:31:19.400Z,2330
2022-12-15T08:32:34.673Z,2344
2022-12-15T08:33:50.911Z,2369
2022-12-15T08:35:07.146Z,2397
2022-12-15T08:36:23.395Z,2437
2022-12-15T08:37:39.626Z,2472
2022-12-15T08:38:55.876Z,2515
2022-12-15T08:40:12.117Z,2542
2022-12-15T08:41:28.349Z,2555
2022-12-15T08:42:44.586Z,2558
2022-12-15T08:44:00.837Z,2536
2022-12-15T08:45:17.067Z,2488
2022-12-15T08:46:33.319Z,2424
2022-12-15T08:47:49.566Z,2420
2022-12-15T08:49:05.800Z,2467
2022-12-15T08:50:21.047Z,2528
2022-12-15T08:51:37.286Z,2482
2022-12-15T08:52:53.537Z,2388
2022-12-15T08:54:10.026Z,2332
2022-12-15T08:55:26.003Z,2308
2022-12-15T08:56:42.255Z,2296
2022-12-15T08:57:58.493Z,2274
2022-12-15T08:59:14.741Z,2269
2022-12-15T09:00:30.981Z,2278
2022-12-15T09:01:47.222Z,2304
2022-12-15T09:03:03.455Z,2347
2022-12-15T09:04:19.711Z,2395
2022-12-15T09:05:35.951Z,2447
2022-12-15T09:06:52.184Z,2507
2022-12-15T09:08:07.439Z,2577
2022-12-15T09:09:23.678Z,2647
2022-12-15T09:10:39.922Z,2725
2022-12-15T09:11:56.173Z,2830
2022-12-15T09:13:12.415Z,2878
2022-12-15T09:14:28.648Z,2854
2022-12-15T09:15:44.874Z,2879
2022-12-15T09:17:01.126Z,2874
2022-12-15T09:18:17.371Z,2815
2022-12-15T09:19:33.597Z,2887
2022-12-15T09:20:49.847Z,3010
2022-12-15T09:22:06.097Z,3063
2022-12-15T09:23:22.340Z,3077
2022-12-15T09:24:38.581Z,3081
2022-12-15T09:25:53.828Z,3088
2022-12-15T09:27:10.071Z,3096
2022-12-15T09:28:26.316Z,3095
2022-12-15T09:29:42.557Z,3106
2022-12-15T09:30:58.789Z,3117
2022-12-15T09:32:14.065Z,3117
2022-12-15T09:33:30.301Z,3130
2022-12-15T09:34:46.538Z,3135
2022-12-15T09:36:02.777Z,3144
2022-12-15T09:37:19.022Z,3150
2022-12-15T09:38:35.257Z,3159
2022-12-15T09:39:51.504Z,3167
2022-12-15T09:41:07.752Z,3177
2022-12-15T09:42:23.983Z,3187
2022-12-15T09:43:40.238Z,3193
2022-12-15T09:44:56.461Z,3196
2022-12-15T09:46:12.713Z,3201
2022-12-15T09:47:28.952Z,3210
2022-12-15T09:48:44.201Z,3214
2022-12-15T09:50:00.456Z,3220
2022-12-15T09:51:16.687Z,3227
2022-12-15T09:52:32.931Z,3236
2022-12-15T09:53:49.161Z,3245
2022-12-15T09:55:05.415Z,3250
2022-12-15T09:56:21.653Z,3255
2022-12-15T09:57:37.897Z,3255
2022-12-15T09:58:54.132Z,3259
2022-12-15T10:00:10.381Z,3259
2022-12-15T10:01:26.624Z,3260
2022-12-15T10:02:42.842Z,3263
2022-12-15T10:03:59.106Z,3269
2022-12-15T10:05:15.338Z,3268
2022-12-15T10:06:30.601Z,3272
2022-12-15T10:07:46.840Z,3279
2022-12-15T10:09:03.071Z,3282
2022-12-15T10:10:19.301Z,3288
2022-12-15T10:11:35.552Z,3290
2022-12-15T10:12:51.797Z,3294
2022-12-15T10:14:08.030Z,3299
2022-12-15T10:15:24.280Z,3314
2022-12-15T10:16:40.505Z,3320
2022-12-15T10:17:56.748Z,3327
2022-12-15T10:19:13.007Z,3336
2022-12-15T10:20:29.241Z,3341
2022-12-15T10:21:45.473Z,3352
2022-12-15T10:23:01.721Z,3358
2022-12-15T10:24:16.968Z,3364
2022-12-15T10:25:33.214Z,3371
2022-12-15T10:26:49.448Z,3372
2022-12-15T10:28:05.693Z,3371
2022-12-15T10:29:21.946Z,3368
2022-12-15T10:30:38.190Z,3367
2022-12-15T10:31:54.434Z,3368
2022-12-15T10:33:10.663Z,3373
2022-12-15T10:34:26.901Z,3376
2022-12-15T10:35:43.135Z,3380
2022-12-15T10:36:59.395Z,3380
2022-12-15T10:38:15.625Z,3381
2022-12-15T10:39:31.867Z,3380
2022-12-15T10:40:48.114Z,3384
2022-12-15T10:42:03.360Z,3386
2022-12-15T10:43:19.608Z,3382
2022-12-15T10:44:35.854Z,3380
2022-12-15T10:45:52.086Z,3383
2022-12-15T10:47:08.323Z,3381
2022-12-15T10:48:24.568Z,3378
2022-12-15T10:49:40.847Z,3380
2022-12-15T10:50:57.075Z,3381
2022-12-15T10:52:13.317Z,3384
2022-12-15T10:53:29.553Z,3386
2022-12-15T10:54:45.804Z,3391
2022-12-15T10:56:02.052Z,3395
2022-12-15T10:57:18.289Z,3400
2022-12-15T10:58:34.518Z,3411
2022-12-15T10:59:50.895Z,3421
2022-12-15T11:01:07.111Z,3429
2022-12-15T11:02:23.358Z,3435
2022-12-15T11:03:39.596Z,3433
2022-12-15T11:04:55.852Z,3432
2022-12-15T11:06:12.097Z,3431
2022-12-15T11:07:28.327Z,3432
2022-12-15T11:08:44.581Z,3446
2022-12-15T11:10:00.815Z,3480
2022-12-15T11:11:17.052Z,3520
2022-12-15T11:12:33.301Z,3564
2022-12-15T11:13:49.533Z,3597
2022-12-15T11:15:05.769Z,3642
2022-12-15T11:16:21.025Z,3681
2022-12-15T11:17:37.266Z,3685
2022-12-15T11:18:53.518Z,3727
2022-12-15T11:20:09.750Z,3731
2022-12-15T11:21:25.984Z,3665
2022-12-15T11:22:42.245Z,3553
2022-12-15T11:23:58.478Z,3440
2022-12-15T11:25:14.708Z,3357
2022-12-15T11:26:30.942Z,3317
2022-12-15T11:27:47.189Z,3308
2022-12-15T11:29:03.432Z,3307
2022-12-15T11:30:19.670Z,3305
2022-12-15T11:31:35.905Z,3293
2022-12-15T11:32:51.172Z,3280
2022-12-15T11:34:07.428Z,3267
2022-12-15T11:35:23.657Z,3262
2022-12-15T11:36:39.899Z,3260
2022-12-15T11:37:56.140Z,3260
2022-12-15T11:39:12.375Z,3256
2022-12-15T11:40:28.610Z,3253
2022-12-15T11:41:44.861Z,3250
2022-12-15T11:43:01.111Z,3250
2022-12-15T11:44:17.334Z,3242
2022-12-15T11:45:33.587Z,3235
2022-12-15T11:46:49.817Z,3225
2022-12-15T11:48:06.056Z,3207
2022-12-15T11:49:21.325Z,3194
2022-12-15T11:50:37.561Z,3182
2022-12-15T11:51:53.800Z,3176
2022-12-15T11:53:10.046Z,3166
2022-12-15T11:54:26.277Z,3164
2022-12-15T11:55:42.514Z,3162
2022-12-15T11:56:58.757Z,3149
2022-12-15T11:58:15.009Z,3134
2022-12-15T11:59:31.250Z,3120
2022-12-15T12:00:47.495Z,3106
2022-12-15T12:02:03.738Z,3096
2022-12-15T12:03:19.955Z,3084
2022-12-15T12:04:36.197Z,3071
2022-12-15T12:05:51.466Z,3069
2022-12-15T12:07:07.709Z,3064
2022-12-15T12:08:23.956Z,3040
2022-12-15T12:09:40.183Z,3034
2022-12-15T12:10:56.422Z,3058
2022-12-15T12:12:12.678Z,3041
2022-12-15T12:13:28.907Z,2996
2022-12-15T12:14:45.150Z,2967
2022-12-15T12:16:01.394Z,2947
2022-12-15T12:17:17.616Z,2942
2022-12-15T12:18:33.858Z,2950
2022-12-15T12:19:50.107Z,2959
2022-12-15T12:21:06.360Z,2966
2022-12-15T12:22:22.587Z,2954
2022-12-15T12:23:37.846Z,2933
2022-12-15T12:24:54.098Z,2920
2022-12-15T12:26:10.326Z,2908
2022-12-15T12:27:26.568Z,2928
2022-12-15T12:28:42.818Z,2945
2022-12-15T12:29:59.047Z,2956
2022-12-15T12:31:15.289Z,2960
2022-12-15T12:32:31.531Z,2952
2022-12-15T12:33:47.778Z,2941
2022-12-15T12:35:04.008Z,2916
2022-12-15T12:36:20.255Z,2899
2022-12-15T12:37:36.502Z,2902
2022-12-15T12:38:52.736Z,2892
2022-12-15T12:40:08.981Z,2880
2022-12-15T12:41:24.236Z,2867
2022-12-15T12:42:40.471Z,2854
2022-12-15T12:43:56.720Z,2838
2022-12-15T12:45:12.959Z,2832
2022-12-15T12:46:29.190Z,2829
2022-12-15T12:47:45.427Z,2818
2022-12-15T12:49:01.665Z,2796
2022-12-15T12:50:17.919Z,2783
2022-12-15T12:51:34.168Z,2782
2022-12-15T12:52:50.407Z,2784
2022-12-15T12:54:06.633Z,2768
2022-12-15T12:55:22.883Z,2762
2022-12-15T12:56:39.118Z,2759
2022-12-15T12:57:55.362Z,2740
2022-12-15T12:59:11.600Z,2721
2022-12-15T13:00:26.869Z,2707
2022-12-15T13:01:43.108Z,2694
2022-12-15T13:02:59.347Z,2688
2022-12-15T13:04:15.581Z,2677
2022-12-15T13:05:31.824Z,2674
2022-12-15T13:06:48.055Z,2663
2022-12-15T13:08:04.299Z,2654
2022-12-15T13:09:20.525Z,2643
2022-12-15T13:10:36.789Z,2633
2022-12-15T13:11:53.019Z,2625
2022-12-15T13:13:09.257Z,2613
2022-12-15T13:14:25.510Z,2593
2022-12-15T13:15:41.756Z,2573
2022-12-15T13:16:57.980Z,2559
2022-12-15T13:18:13.224Z,2541
2022-12-15T13:19:29.477Z,2527
2022-12-15T13:20:45.724Z,2513
2022-12-15T13:22:01.971Z,2498
2022-12-15T13:23:18.196Z,2482
2022-12-15T13:24:34.437Z,2461
2022-12-15T13:25:50.686Z,2445
2022-12-15T13:27:06.921Z,2425
2022-12-15T13:28:23.169Z,2406
2022-12-15T13:29:39.413Z,2387
2022-12-15T13:30:55.645Z,2365
2022-12-15T13:32:11.895Z,2345
2022-12-15T13:33:28.126Z,2320
2022-12-15T13:34:43.366Z,2300
2022-12-15T13:35:59.622Z,2279
2022-12-15T13:37:15.864Z,2264
2022-12-15T13:38:32.107Z,2247
2022-12-15T13:39:48.341Z,2229
2022-12-15T13:41:04.567Z,2209
2022-12-15T13:42:20.827Z,2192
2022-12-15T13:43:37.061Z,2172
2022-12-15T13:44:53.318Z,2149
2022-12-15T13:46:09.533Z,2134
2022-12-15T13:47:24.820Z,2121
2022-12-15T13:48:41.036Z,2103
2022-12-15T13:49:57.287Z,2086
2022-12-15T13:51:13.524Z,2060
2022-12-15T13:52:29.782Z,2039
2022-12-15T13:53:45.998Z,2019
2022-12-15T13:55:02.251Z,1996
2022-12-15T13:56:18.503Z,1977
2022-12-15T13:57:34.723Z,1961
2022-12-15T13:58:50.960Z,1947
2022-12-15T14:00:07.208Z,1932
2022-12-15T14:01:23.439Z,1917
2022-12-15T14:02:39.688Z,1896
2022-12-15T14:03:54.951Z,1868
2022-12-15T14:05:11.191Z,1838
2022-12-15T14:06:27.427Z,1798
2022-12-15T14:07:43.681Z,1762
2022-12-15T14:08:59.913Z,1729
2022-12-15T14:10:16.166Z,1700
2022-12-15T14:11:32.402Z,1670
2022-12-15T14:12:48.641Z,1648
2022-12-15T14:14:04.862Z,1619
2022-12-15T14:15:21.125Z,1590
2022-12-15T14:16:37.337Z,1558
2022-12-15T14:17:53.604Z,1525
2022-12-15T14:19:09.828Z,1493
2022-12-15T14:20:26.202Z,1464
2022-12-15T14:21:42.422Z,1429
2022-12-15T14:22:58.681Z,1386
2022-12-15T14:24:14.932Z,1352
2022-12-15T14:25:31.145Z,1316
2022-12-15T14:26:47.392Z,1271
2022-12-15T14:28:03.642Z,1231
2022-12-15T14:29:19.882Z,1186
2022-12-15T14:30:36.126Z,1150
2022-12-15T14:31:52.360Z,1105
2022-12-15T14:33:08.609Z,1061
2022-12-15T14:34:24.833Z,1028
2022-12-15T14:35:41.090Z,999
2022-12-15T14:36:56.325Z,970
2022-12-15T14:38:12.594Z,928
2022-12-15T14:39:28.814Z,890
2022-12-15T14:40:45.061Z,838
2022-12-15T14:42:01.303Z,789
2022-12-15T14:43:17.534Z,748
2022-12-15T14:44:33.789Z,691
2022-12-15T14:45:50.021Z,643
2022-12-15T14:47:06.252Z,623
2022-12-15T14:48:22.513Z,596
2022-12-15T14:49:38.756Z,559
2022-12-15T14:50:54.983Z,521
2022-12-15T14:52:11.222Z,485
2022-12-15T14:53:26.486Z,450
2022-12-15T14:54:42.727Z,420
2022-12-15T14:55:58.967Z,384
2022-12-15T14:57:15.203Z,356
2022-12-15T14:58:31.433Z,324
2022-12-15T14:59:47.697Z,298
2022-12-15T15:01:03.942Z,275
2022-12-15T15:02:20.171Z,255
2022-12-15T15:03:36.412Z,230
2022-12-15T15:04:52.652Z,206
2022-12-15T15:06:08.894Z,186
2022-12-15T15:07:25.120Z,169
2022-12-15T15:08:41.378Z,148
2022-12-15T15:09:56.635Z,133
2022-12-15T15:11:12.881Z,116
2022-12-15T15:12:29.110Z,100
2022-12-15T15:13:45.350Z,86
2022-12-15T15:15:01.595Z,71
2022-12-15T15:16:17.835Z,69
2022-12-15T15:17:34.081Z,59
2022-12-15T15:18:50.322Z,49
2022-12-15T15:20:06.542Z,45
2022-12-15T15:21:22.787Z,36
2022-12-15T15:22:39.042Z,27
2022-12-15T15:23:55.294Z,23
2022-12-15T15:25:11.532Z,22
2022-12-15T15:26:27.763Z,18
2022-12-15T15:27:43.022Z,16
2022-12-15T15:28:59.268Z,10
2022-12-15T15:30:15.494Z,11
2022-12-15T15:31:31.752Z,11
2022-12-15T15:32:47.965Z,3
2022-12-15T15:34:04.223Z,6
2022-12-15T15:35:20.459Z,3
2022-12-15T15:36:36.700Z,6
2022-12-15T15:37:52.949Z,3
2022-12-15T15:39:09.189Z,3
2022-12-15T15:40:25.414Z,2
2022-12-15T15:41:41.669Z,2
2022-12-15T15:42:57.903Z,2
2022-12-15T15:44:14.158Z,1
2022-12-15T15:45:29.408Z,2
2022-12-15T15:46:45.649Z,1
2022-12-15T15:48:01.895Z,1
2022-12-15T15:49:18.127Z,1
2022-12-15T15:50:34.437Z,0
2022-12-15T15:51:50.703Z,0
2022-12-15T15:53:07.022Z,0
2022-12-15T15:54:23.309Z,0
2022-12-15T15:55:39.613Z,0
2022-12-15T15:56:55.900Z,0
2022-12-15T15:58:12.200Z,0
2022-12-15T15:59:28.483Z,0
2022-12-15T16:00:44.783Z,0
2022-12-15T16:02:01.075Z,0
2022-12-15T16:03:16.387Z,0
2022-12-15T16:04:32.696Z,0
2022-12-15T16:05:49.200Z,0
2022-12-15T16:07:05.495Z,0
2022-12-15T16:08:21.789Z,0
2022-12-15T16:09:38.092Z,0
2022-12-15T16:10:54.389Z,0
2022-12-15T16:12:10.676Z,0
2022-12-15T16:13:26.969Z,0
2022-12-15T16:14:43.262Z,0
2022-12-15T16:15:59.561Z,0
2022-12-15T16:17:15.868Z,0
2022-12-15T16:18:32.133Z,0
2022-12-15T16:19:48.453Z,0
2022-12-15T16:21:03.753Z,0
2022-12-15T16:22:20.062Z,0
2022-12-15T16:23:36.336Z,0
2022-12-15T16:24:52.648Z,0
2022-12-15T16:26:08.942Z,0
2022-12-15T16:27:25.218Z,0
2022-12-15T16:28:41.518Z,0
2022-12-15T16:29:57.805Z,0
2022-12-15T16:31:14.096Z,0
2022-12-15T16:32:30.416Z,0
2022-12-15T16:33:46.702Z,0
2022-12-15T16:35:02.998Z,0
2022-12-15T16:36:19.289Z,0
2022-12-15T16:37:35.593Z,0
2022-12-15T16:38:50.897Z,0
2022-12-15T16:40:07.193Z,0
2022-12-15T16:41:23.494Z,0
2022-12-15T16:42:39.786Z,0
2022-12-15T16:43:56.078Z,0
2022-12-15T16:45:12.365Z,0
2022-12-15T16:46:28.651Z,0
2022-12-15T16:47:44.971Z,0
2022-12-15T16:49:01.255Z,0
2022-12-15T16:50:17.560Z,0
2022-12-15T16:51:33.857Z,0
2022-12-15T16:52:50.122Z,0
2022-12-15T16:54:06.444Z,0
2022-12-15T16:55:22.734Z,0
2022-12-15T16:56:38.041Z,0
2022-12-15T16:57:54.336Z,0
2022-12-15T16:59:10.613Z,0
2022-12-15T17:01:43.216Z,0
2022-12-15T17:02:59.512Z,0
2022-12-15T17:04:15.811Z,0
2022-12-15T17:05:32.111Z,0
2022-12-15T17:06:48.397Z,0
2022-12-15T17:08:04.689Z,0
2022-12-15T17:09:20.971Z,0
2022-12-15T17:10:37.287Z,0
2022-12-15T17:11:53.588Z,0
2022-12-15T17:13:09.875Z,0
2022-12-15T17:14:25.180Z,0
2022-12-15T17:15:41.000Z,0
2022-12-15T17:16:57.755Z,0
2022-12-15T17:18:14.071Z,0
2022-12-15T17:19:30.358Z,0
2022-12-15T17:20:46.651Z,0
2022-12-15T17:22:02.948Z,0
2022-12-15T17:23:19.240Z,0
2022-12-15T17:24:35.543Z,0
2022-12-15T17:25:51.831Z,0
2022-12-15T17:27:08.114Z,0
2022-12-15T17:28:24.433Z,0
2022-12-15T17:29:40.728Z,0
2022-12-15T17:30:56.999Z,0
2022-12-15T17:32:13.438Z,0
2022-12-15T17:33:29.722Z,0
2022-12-15T17:34:46.012Z,0
2022-12-15T17:36:02.315Z,0
2022-12-15T17:37:18.602Z,0
2022-12-15T17:38:34.902Z,0
2022-12-15T17:39:51.214Z,0
2022-12-15T17:41:07.496Z,0
2022-12-15T17:42:23.785Z,0
2022-12-15T17:43:40.096Z,0
2022-12-15T17:44:56.382Z,0
2022-12-15T17:46:12.677Z,0
2022-12-15T17:47:28.952Z,0
2022-12-15T17:48:44.281Z,0
2022-12-15T17:50:00.559Z,0
2022-12-15T17:51:16.876Z,0
2022-12-15T17:52:33.158Z,0
2022-12-15T17:53:49.442Z,0
2022-12-15T17:55:05.758Z,0
2022-12-15T17:56:22.047Z,0
2022-12-15T17:57:38.353Z,0
2022-12-15T17:58:54.650Z,0
2022-12-15T18:00:10.946Z,0
2022-12-15T18:01:27.240Z,0
2022-12-15T18:02:42.535Z,0
2022-12-15T18:03:58.851Z,0
2022-12-15T18:05:15.144Z,0
2022-12-15T18:06:31.428Z,0
2022-12-15T18:07:47.735Z,0
2022-12-15T18:09:04.016Z,0
2022-12-15T18:10:20.311Z,0
2022-12-15T18:11:36.621Z,0
2022-12-15T18:12:52.900Z,0
2022-12-15T18:14:09.197Z,0
2022-12-15T18:15:25.491Z,0
2022-12-15T18:16:41.781Z,0
2022-12-15T18:17:58.069Z,0
2022-12-15T18:19:14.376Z,0
2022-12-15T18:20:29.684Z,0
2022-12-15T18:21:45.968Z,0
2022-12-15T18:23:02.277Z,0
2022-12-15T18:24:18.564Z,0
2022-12-15T18:25:34.866Z,0
2022-12-15T18:26:51.148Z,0
2022-12-15T18:28:07.465Z,0
2022-12-15T18:29:23.767Z,0
2022-12-15T18:30:40.046Z,0
2022-12-15T18:31:56.336Z,0
2022-12-15T18:33:12.649Z,0
2022-12-15T18:34:28.941Z,0
2022-12-15T18:35:45.235Z,0
2022-12-15T18:37:01.508Z,0
2022-12-15T18:38:17.799Z,0
2022-12-15T18:39:33.139Z,0
2022-12-15T18:40:49.421Z,0
2022-12-15T18:42:05.715Z,0
2022-12-15T18:43:21.996Z,0
2022-12-15T18:44:38.309Z,0
2022-12-15T18:45:54.599Z,0
2022-12-15T18:47:10.877Z,0
2022-12-15T18:48:27.197Z,0
2022-12-15T18:49:43.493Z,0
2022-12-15T18:50:59.780Z,0
2022-12-15T18:52:16.065Z,0
2022-12-15T18:53:32.369Z,0
2022-12-15T18:54:48.662Z,0
2022-12-15T18:56:03.974Z,0
2022-12-15T18:57:20.288Z,0
2022-12-15T18:58:36.568Z,0
2022-12-15T18:59:52.857Z,0
2022-12-15T19:01:09.167Z,0
2022-12-15T19:02:25.434Z,0
2022-12-15T19:03:41.745Z,0
2022-12-15T19:04:58.030Z,0
2022-12-15T19:06:14.333Z,0
2022-12-15T19:07:30.631Z,0
2022-12-15T19:08:46.931Z,0
2022-12-15T19:10:03.208Z,0
2022-12-15T19:11:19.514Z,0
2022-12-15T19:12:35.801Z,0
2022-12-15T19:13:51.139Z,0
2022-12-15T19:15:07.433Z,0
2022-12-15T19:16:23.715Z,0
2022-12-15T19:17:39.998Z,0
2022-12-15T19:18:56.290Z,0
2022-12-15T19:20:12.594Z,0
2022-12-15T19:21:28.875Z,0
2022-12-15T19:22:45.189Z,0
2022-12-15T19:24:01.480Z,0
2022-12-15T19:25:17.765Z,0
2022-12-15T19:26:34.080Z,0